Time;durP1;ratioP1;P1;durP2;ratioP2;P2;SDS_P1;SDS_P2;PMS_P1;PMS_P2;Temp;Humidity;BMP_temperature;BMP_pressure;BME280_temperature;BME280_humidity;BME280_pressure;Samples;Min_cycle;Max_cycle;Signal;HPM_P1;HPM_P2
2023/07/25 00:00:46;;;;;;;5.88;3.92;;;;;17.00;95461.00;;;;8248406;28;20211;-67
2023/07/25 00:04:50;;;;;;;5.60;3.33;;;;;17.00;95454.00;;;;8252891;28;20573;-67
2023/07/25 00:09:02;;;;;;;6.75;3.25;;;;;17.00;95443.00;;;;8250028;28;20297;-67
2023/07/25 00:13:08;;;;;;;6.05;3.58;;;;;17.10;95452.00;;;;8250589;28;20203;-67
2023/07/25 00:17:14;;;;;;;4.68;3.13;;;;;17.10;95438.00;;;;8243740;28;20229;-67
2023/07/25 00:21:20;;;;;;;5.43;3.63;;;;;17.20;95434.00;;;;8253268;28;20245;-67
2023/07/25 00:25:27;;;;;;;4.30;3.60;;;;;17.30;95434.00;;;;8251411;28;20211;-67
2023/07/25 00:29:30;;;;;;;3.60;3.28;;;;;17.30;95433.00;;;;8249697;28;20276;-67
2023/07/25 00:33:33;;;;;;;5.45;3.38;;;;;17.30;95440.00;;;;8247074;28;20207;-67
2023/07/25 00:37:36;;;;;;;7.32;3.50;;;;;17.20;95440.00;;;;8248852;28;20241;-67
2023/07/25 00:41:45;;;;;;;3.90;3.38;;;;;17.20;95450.00;;;;8233274;28;20203;-67
2023/07/25 00:45:48;;;;;;;5.90;3.45;;;;;17.10;95459.00;;;;8242721;28;20286;-67
2023/07/25 00:49:55;;;;;;;6.53;3.70;;;;;17.10;95448.00;;;;8249282;28;20199;-67
2023/07/25 00:53:58;;;;;;;4.55;3.53;;;;;17.00;95463.00;;;;8250639;28;20572;-67
2023/07/25 00:58:03;;;;;;;7.00;3.83;;;;;17.00;95464.00;;;;8248311;28;20341;-67
2023/07/25 01:02:07;;;;;;;4.25;3.40;;;;;17.00;95451.00;;;;8227962;28;20219;-67
2023/07/25 01:06:14;;;;;;;5.60;3.08;;;;;17.00;95465.00;;;;8245962;28;20227;-67
2023/07/25 01:10:18;;;;;;;5.95;3.08;;;;;17.00;95442.00;;;;8245312;28;20281;-66
2023/07/25 01:14:23;;;;;;;6.80;3.08;;;;;17.00;95429.00;;;;8233311;28;20215;-67
2023/07/25 01:18:29;;;;;;;3.53;3.08;;;;;17.10;95421.00;;;;8248204;28;20242;-67
2023/07/25 01:22:37;;;;;;;4.55;3.17;;;;;17.00;95424.00;;;;8241238;28;20218;-67
2023/07/25 01:26:43;;;;;;;5.80;3.42;;;;;17.10;95434.00;;;;8249630;28;20253;-67
2023/07/25 01:30:48;;;;;;;3.38;3.08;;;;;17.10;95417.00;;;;8246513;28;20293;-68
2023/07/25 01:34:55;;;;;;;4.50;3.30;;;;;17.10;95406.00;;;;8247258;28;20929;-67
2023/07/25 01:38:58;;;;;;;4.30;2.85;;;;;17.10;95414.00;;;;8245482;28;20231;-67
2023/07/25 01:43:05;;;;;;;4.30;3.00;;;;;17.10;95407.00;;;;8243538;28;20210;-67
2023/07/25 01:47:08;;;;;;;3.95;3.22;;;;;17.30;95403.00;;;;8248061;28;20202;-67
2023/07/25 01:51:21;;;;;;;4.38;3.03;;;;;17.30;95399.00;;;;8245869;28;20199;-67
2023/07/25 01:55:27;;;;;;;4.28;3.13;;;;;17.30;95391.00;;;;8245487;28;20588;-67
2023/07/25 01:59:33;;;;;;;4.00;3.20;;;;;17.20;95381.00;;;;8245883;28;20231;-67
2023/07/25 02:03:40;;;;;;;4.38;2.97;;;;;17.20;95382.00;;;;8246380;28;20260;-67
2023/07/25 02:07:45;;;;;;;4.47;3.65;;;;;17.10;95393.00;;;;8244978;28;20298;-66
2023/07/25 02:11:49;;;;;;;6.28;3.28;;;;;17.10;95392.00;;;;8247103;28;20294;-67
2023/07/25 02:15:53;;;;;;;8.23;3.35;;;;;17.10;95385.00;;;;8247384;28;20310;-67
2023/07/25 02:19:57;;;;;;;5.65;3.05;;;;;17.10;95396.00;;;;8250836;28;21186;-66
2023/07/25 02:24:05;;;;;;;13.50;3.42;;;;;17.10;95393.00;;;;8252462;28;20207;-67
2023/07/25 02:28:08;;;;;;;4.22;2.92;;;;;17.10;95398.00;;;;8253401;28;20222;-66
2023/07/25 02:32:13;;;;;;;4.75;3.22;;;;;17.10;95390.00;;;;8242431;28;20199;-67
2023/07/25 02:36:19;;;;;;;5.85;3.20;;;;;17.10;95392.00;;;;8254733;28;20322;-66
2023/07/25 02:40:22;;;;;;;6.57;3.42;;;;;17.10;95367.00;;;;8251350;28;20679;-67
2023/07/25 02:44:27;;;;;;;4.50;3.33;;;;;17.00;95357.00;;;;8254414;28;20571;-66
2023/07/25 02:48:33;;;;;;;5.38;3.42;;;;;16.80;95348.00;;;;8251894;28;20310;-66
2023/07/25 02:52:36;;;;;;;7.53;4.07;;;;;16.60;95338.00;;;;8233516;28;20701;-67
2023/07/25 02:56:41;;;;;;;5.72;3.85;;;;;16.50;95328.00;;;;8252395;28;20202;-67
2023/07/25 03:00:44;;;;;;;7.57;3.83;;;;;16.50;95315.00;;;;8272453;23;20911;-68
2023/07/25 03:04:48;;;;;;;3.78;3.35;;;;;16.50;95306.00;;;;8270344;23;20586;-68
2023/07/25 03:08:51;;;;;;;9.05;4.05;;;;;16.50;95307.00;;;;8250901;28;20295;-67
2023/07/25 03:12:54;;;;;;;9.32;3.90;;;;;16.50;95309.00;;;;8251156;28;20592;-67
2023/07/25 03:16:58;;;;;;;8.38;4.20;;;;;16.50;95319.00;;;;8240950;28;20291;-66
2023/07/25 03:21:05;;;;;;;7.57;4.25;;;;;16.50;95320.00;;;;8249474;28;20202;-67
2023/07/25 03:25:09;;;;;;;6.15;3.70;;;;;16.40;95303.00;;;;8250922;28;20202;-67
2023/07/25 03:29:13;;;;;;;7.78;3.80;;;;;16.40;95312.00;;;;8244881;28;20210;-68
2023/07/25 03:33:18;;;;;;;11.57;3.78;;;;;16.30;95299.00;;;;8251139;28;20302;-68
2023/07/25 03:37:22;;;;;;;8.18;4.03;;;;;16.20;95306.00;;;;8249990;28;20333;-68
2023/07/25 03:41:26;;;;;;;6.22;3.40;;;;;16.30;95298.00;;;;8250025;28;20983;-67
2023/07/25 03:45:29;;;;;;;7.03;3.55;;;;;16.30;95302.00;;;;8240485;28;20649;-68
2023/07/25 03:49:36;;;;;;;10.73;3.67;;;;;16.30;95310.00;;;;8237985;28;20207;-68
2023/07/25 03:53:43;;;;;;;7.88;3.53;;;;;16.30;95310.00;;;;8241555;28;20282;-66
2023/07/25 03:57:46;;;;;;;5.32;3.30;;;;;16.30;95307.00;;;;8239338;28;20237;-67
2023/07/25 04:01:49;;;;;;;8.07;3.60;;;;;16.30;95304.00;;;;8239665;28;20199;-68
2023/07/25 04:05:52;;;;;;;8.65;3.63;;;;;16.40;95317.00;;;;8224731;28;20284;-68
2023/07/25 04:09:57;;;;;;;8.48;3.58;;;;;16.50;95323.00;;;;8222490;28;20876;-67
2023/07/25 04:14:01;;;;;;;6.95;3.67;;;;;16.40;95316.00;;;;8222383;28;20663;-67
2023/07/25 04:18:04;;;;;;;6.65;3.92;;;;;16.50;95323.00;;;;8217344;28;20228;-68
2023/07/25 04:22:07;;;;;;;4.65;3.60;;;;;16.50;95318.00;;;;8210925;28;20200;-68
2023/07/25 04:26:12;;;;;;;7.70;3.85;;;;;16.50;95336.00;;;;8217598;28;20210;-68
2023/07/25 04:30:19;;;;;;;9.63;4.95;;;;;16.60;95342.00;;;;8206178;28;20278;-67
2023/07/25 04:34:25;;;;;;;10.10;3.90;;;;;16.60;95341.00;;;;8206649;28;20295;-67
2023/07/25 04:38:28;;;;;;;7.40;4.00;;;;;16.70;95350.00;;;;8213416;28;20310;-67
2023/07/25 04:42:38;;;;;;;8.50;3.42;;;;;16.80;95358.00;;;;8220221;28;20211;-67
2023/07/25 04:46:43;;;;;;;4.05;3.65;;;;;17.00;95354.00;;;;8240147;28;20214;-67
2023/07/25 04:50:47;;;;;;;5.95;3.58;;;;;17.00;95351.00;;;;8238606;28;20295;-67
2023/07/25 04:54:52;;;;;;;4.47;3.47;;;;;17.10;95348.00;;;;8225966;28;20217;-67
2023/07/25 04:58:57;;;;;;;8.63;3.92;;;;;17.10;95341.00;;;;8224538;28;20993;-67
2023/07/25 05:03:02;;;;;;;8.32;3.85;;;;;17.20;95331.00;;;;8232047;28;20799;-67
2023/07/25 05:07:06;;;;;;;5.60;3.95;;;;;17.30;95335.00;;;;8225675;28;20203;-67
2023/07/25 05:11:11;;;;;;;8.20;4.30;;;;;17.50;95326.00;;;;8221407;28;20254;-67
2023/07/25 05:15:18;;;;;;;5.35;3.50;;;;;17.70;95334.00;;;;8220110;28;20238;-67
2023/07/25 05:19:23;;;;;;;5.75;3.60;;;;;17.90;95331.00;;;;8202425;28;20581;-67
2023/07/25 05:23:35;;;;;;;5.45;4.20;;;;;18.10;95338.00;;;;8221202;28;20586;-67
2023/07/25 05:27:38;;;;;;;8.30;3.85;;;;;18.20;95330.00;;;;8222360;28;20239;-67
2023/07/25 05:31:43;;;;;;;4.43;3.75;;;;;18.50;95332.00;;;;8219270;28;20290;-67
2023/07/25 05:35:46;;;;;;;5.55;3.92;;;;;18.80;95335.00;;;;8218405;28;20211;-67
2023/07/25 05:39:54;;;;;;;7.13;4.32;;;;;19.00;95320.00;;;;8218829;28;20230;-67
2023/07/25 05:44:00;;;;;;;4.63;3.78;;;;;19.20;95327.00;;;;8225513;28;20633;-67
2023/07/25 05:48:11;;;;;;;8.65;4.50;;;;;19.40;95313.00;;;;8221692;28;20298;-67
2023/07/25 05:52:14;;;;;;;5.50;4.25;;;;;19.60;95322.00;;;;8218528;28;20208;-67
2023/07/25 05:56:19;;;;;;;5.93;4.00;;;;;19.80;95312.00;;;;8222876;28;20230;-67
2023/07/25 06:00:23;;;;;;;6.63;4.20;;;;;20.00;95307.00;;;;8221951;28;20249;-67
2023/07/25 06:04:27;;;;;;;7.30;4.53;;;;;20.20;95299.00;;;;8217634;28;20327;-67
2023/07/25 06:08:34;;;;;;;9.68;5.60;;;;;20.30;95280.00;;;;8224908;28;20207;-67
2023/07/25 06:12:39;;;;;;;10.98;5.60;;;;;20.30;95286.00;;;;8222513;28;20701;-67
2023/07/25 06:16:42;;;;;;;16.95;7.78;;;;;20.30;95287.00;;;;8225408;28;20291;-67
2023/07/25 06:20:50;;;;;;;18.38;8.63;;;;;20.40;95277.00;;;;8226086;28;20266;-67
2023/07/25 06:24:55;;;;;;;21.83;10.40;;;;;20.50;95268.00;;;;8200832;28;20665;-67
2023/07/25 06:28:58;;;;;;;25.27;12.20;;;;;20.60;95261.00;;;;8217613;28;21025;-67
2023/07/25 06:33:06;;;;;;;32.83;14.35;;;;;20.60;95254.00;;;;8225192;28;20214;-67
2023/07/25 06:37:13;;;;;;;32.75;15.05;;;;;20.70;95232.00;;;;8219701;28;20200;-67
2023/07/25 06:41:18;;;;;;;30.95;14.25;;;;;20.70;95229.00;;;;8207763;28;20333;-67
2023/07/25 06:45:21;;;;;;;28.63;14.75;;;;;20.80;95224.00;;;;8219304;28;20314;-67
2023/07/25 06:49:29;;;;;;;33.85;16.02;;;;;20.90;95223.00;;;;8219041;28;20314;-67
2023/07/25 06:53:36;;;;;;;32.10;16.08;;;;;21.00;95220.00;;;;8219137;28;20203;-67
2023/07/25 06:57:39;;;;;;;25.70;13.38;;;;;21.10;95228.00;;;;8218841;28;20262;-67
2023/07/25 07:01:45;;;;;;;31.75;14.82;;;;;21.20;95221.00;;;;8218622;28;20227;-68
2023/07/25 07:05:54;;;;;;;27.38;13.75;;;;;21.60;95246.00;;;;8219699;28;20240;-67
2023/07/25 07:09:59;;;;;;;25.80;15.32;;;;;22.10;95239.00;;;;8231003;28;20222;-68
2023/07/25 07:14:08;;;;;;;31.60;16.30;;;;;22.40;95229.00;;;;8222049;28;20230;-67
2023/07/25 07:18:13;;;;;;;24.42;14.80;;;;;22.30;95243.00;;;;8235246;28;20322;-67
2023/07/25 07:22:19;;;;;;;25.17;15.07;;;;;22.30;95239.00;;;;8233394;28;20241;-67
2023/07/25 07:26:25;;;;;;;29.88;15.52;;;;;22.20;95250.00;;;;8227637;28;20213;-67
2023/07/25 07:30:28;;;;;;;27.58;15.48;;;;;22.10;95260.00;;;;8219744;28;20290;-67
2023/07/25 07:34:31;;;;;;;21.38;14.52;;;;;22.20;95265.00;;;;8221014;28;20668;-68
2023/07/25 07:38:37;;;;;;;24.45;14.80;;;;;22.40;95270.00;;;;8228176;28;20298;-68
2023/07/25 07:42:41;;;;;;;21.80;13.70;;;;;22.60;95266.00;;;;8218971;28;20218;-67
2023/07/25 07:46:50;;;;;;;20.42;14.35;;;;;22.80;95264.00;;;;8204256;28;20196;-68
2023/07/25 07:50:56;;;;;;;20.67;13.63;;;;;23.30;95258.00;;;;8228566;28;20203;-68
2023/07/25 07:55:00;;;;;;;18.15;12.05;;;;;23.60;95259.00;;;;8231077;28;20298;-68
2023/07/25 07:59:07;;;;;;;18.85;12.52;;;;;23.80;95248.00;;;;8220769;28;20238;-67
2023/07/25 08:03:10;;;;;;;19.08;11.27;;;;;23.70;95266.00;;;;8226216;28;20290;-68
2023/07/25 08:07:14;;;;;;;17.15;10.65;;;;;23.60;95269.00;;;;8224371;28;20200;-68
2023/07/25 08:11:21;;;;;;;16.48;11.25;;;;;23.70;95264.00;;;;8215879;28;20266;-68
2023/07/25 08:15:27;;;;;;;18.75;13.30;;;;;23.80;95272.00;;;;8223366;28;20208;-68
2023/07/25 08:19:30;;;;;;;22.23;12.82;;;;;24.00;95270.00;;;;8214921;28;20231;-68
2023/07/25 08:23:36;;;;;;;18.08;12.27;;;;;24.20;95264.00;;;;8223695;28;20294;-68
2023/07/25 08:27:39;;;;;;;14.80;11.68;;;;;24.20;95253.00;;;;8219454;28;20246;-68
2023/07/25 08:31:45;;;;;;;17.08;12.45;;;;;24.20;95246.00;;;;8225823;28;20303;-68
2023/07/25 08:35:52;;;;;;;14.75;11.55;;;;;24.30;95240.00;;;;8224155;28;20212;-68
2023/07/25 08:39:56;;;;;;;13.80;11.02;;;;;24.30;95249.00;;;;8221329;28;20241;-68
2023/07/25 08:44:05;;;;;;;13.57;11.27;;;;;24.20;95252.00;;;;8219930;28;20800;-68
2023/07/25 08:48:12;;;;;;;15.15;11.27;;;;;23.90;95230.00;;;;8202794;28;20211;-69
2023/07/25 08:52:17;;;;;;;16.77;12.55;;;;;24.00;95215.00;;;;8224190;28;20683;-68
2023/07/25 08:56:24;;;;;;;16.15;13.02;;;;;23.90;95212.00;;;;8221542;28;20203;-68
2023/07/25 09:00:28;;;;;;;17.20;12.80;;;;;23.90;95216.00;;;;8218661;28;20238;-68
2023/07/25 09:04:34;;;;;;;17.48;12.38;;;;;23.80;95226.00;;;;8218551;28;20236;-68
2023/07/25 09:08:40;;;;;;;12.45;10.95;;;;;23.80;95226.00;;;;8216337;28;20212;-68
2023/07/25 09:12:43;;;;;;;12.50;10.60;;;;;23.60;95227.00;;;;8224414;28;20204;-68
2023/07/25 09:16:49;;;;;;;15.10;10.60;;;;;23.10;95224.00;;;;8223688;28;20298;-68
2023/07/25 09:20:53;;;;;;;12.88;10.75;;;;;22.80;95234.00;;;;8238030;28;20241;-68
2023/07/25 09:25:00;;;;;;;11.57;9.98;;;;;22.50;95234.00;;;;8223770;28;20216;-68
2023/07/25 09:29:04;;;;;;;10.45;9.38;;;;;22.20;95235.00;;;;8230448;28;20361;-68
2023/07/25 09:33:07;;;;;;;11.50;8.00;;;;;21.80;95230.00;;;;8217857;28;20211;-68
2023/07/25 09:37:12;;;;;;;10.02;8.85;;;;;21.50;95228.00;;;;8225100;28;20303;-69
2023/07/25 09:41:15;;;;;;;11.35;8.50;;;;;21.40;95229.00;;;;8223358;28;20309;-67
2023/07/25 09:45:20;;;;;;;10.80;9.43;;;;;21.30;95231.00;;;;8222596;28;20199;-69
2023/07/25 09:49:23;;;;;;;13.93;9.63;;;;;21.50;95227.00;;;;8236084;28;20826;-70
2023/07/25 09:53:29;;;;;;;9.90;7.63;;;;;21.80;95233.00;;;;8226225;28;20221;-69
2023/07/25 09:57:36;;;;;;;9.93;8.93;;;;;22.10;95242.00;;;;8211103;28;20263;-69
2023/07/25 10:01:40;;;;;;;12.95;9.10;;;;;22.20;95248.00;;;;8232111;28;20307;-69
2023/07/25 10:05:44;;;;;;;9.27;8.02;;;;;22.00;95239.00;;;;8224668;28;20314;-69
2023/07/25 10:09:54;;;;;;;12.27;7.93;;;;;21.70;95245.00;;;;8198728;28;20306;-69
2023/07/25 10:14:01;;;;;;;9.48;7.93;;;;;21.30;95239.00;;;;8219559;28;20203;-69
2023/07/25 10:18:05;;;;;;;10.00;8.35;;;;;20.70;95243.00;;;;8226717;28;20325;-69
2023/07/25 10:22:12;;;;;;;11.63;8.82;;;;;20.30;95232.00;;;;8219372;28;20305;-69
2023/07/25 10:26:18;;;;;;;13.73;8.45;;;;;20.10;95244.00;;;;8225884;28;20206;-69
2023/07/25 10:30:23;;;;;;;6.63;5.75;;;;;19.90;95243.00;;;;8217567;28;20338;-69
2023/07/25 10:34:44;;;;;;;6.45;5.18;;;;;20.10;95243.00;;;;8221608;28;20351;-69
2023/07/25 10:38:48;;;;;;;5.93;4.47;;;;;20.50;95242.00;;;;8225854;28;20319;-69
2023/07/25 10:42:58;;;;;;;8.55;4.40;;;;;21.10;95234.00;;;;8236463;28;20317;-69
2023/07/25 10:47:44;;;;;;;3.58;3.28;;;;;21.80;95243.00;;;;8225411;28;20227;-69
2023/07/25 10:51:49;;;;;;;3.92;3.50;;;;;22.30;95243.00;;;;8226798;28;20229;-69
2023/07/25 10:56:12;;;;;;;4.78;3.42;;;;;22.60;95248.00;;;;8226940;28;20743;-69
2023/07/25 11:00:18;;;;;;;4.30;3.90;;;;;22.70;95246.00;;;;8229047;28;20235;-69
2023/07/25 11:04:29;;;;;;;5.10;3.60;;;;;22.80;95235.00;;;;8224604;28;20246;-68
2023/07/25 11:08:36;;;;;;;4.40;3.70;;;;;22.30;95244.00;;;;8222403;28;20211;-68
2023/07/25 11:12:47;;;;;;;4.50;3.30;;;;;22.00;95252.00;;;;8227843;28;20235;-68
2023/07/25 11:16:56;;;;;;;3.67;3.38;;;;;22.20;95249.00;;;;8220815;28;20243;-68
2023/07/25 11:21:00;;;;;;;4.00;3.33;;;;;22.20;95251.00;;;;8223517;28;20302;-68
2023/07/25 11:25:09;;;;;;;5.00;3.58;;;;;22.10;95253.00;;;;8204076;28;20981;-68
2023/07/25 11:29:19;;;;;;;3.45;3.15;;;;;22.10;95254.00;;;;8219449;28;20287;-68
2023/07/25 11:33:24;;;;;;;4.20;3.78;;;;;22.00;95249.00;;;;8216599;28;20243;-68
2023/07/25 11:37:33;;;;;;;7.93;3.60;;;;;22.00;95245.00;;;;8228851;28;20265;-68
2023/07/25 11:41:37;;;;;;;8.77;3.60;;;;;21.90;95240.00;;;;8221647;28;20239;-68
2023/07/25 11:45:40;;;;;;;4.25;3.67;;;;;21.70;95239.00;;;;8222827;28;20892;-68
2023/07/25 11:49:47;;;;;;;5.55;3.70;;;;;21.60;95236.00;;;;8207576;28;20207;-68
2023/07/25 11:54:07;;;;;;;6.13;4.25;;;;;21.20;95225.00;;;;8221932;28;20212;-68
2023/07/25 11:58:15;;;;;;;4.38;3.97;;;;;20.70;95227.00;;;;8220220;28;20214;-68
2023/07/25 12:02:22;;;;;;;8.02;3.92;;;;;20.40;95234.00;;;;8224296;28;20253;-67
2023/07/25 12:06:31;;;;;;;5.43;3.80;;;;;20.30;95226.00;;;;8192004;28;20199;-67
2023/07/25 12:10:40;;;;;;;4.85;3.65;;;;;20.20;95224.00;;;;8218849;28;20207;-67
2023/07/25 12:14:55;;;;;;;5.05;4.32;;;;;20.40;95229.00;;;;8215535;28;20239;-68
2023/07/25 12:19:00;;;;;;;5.22;3.85;;;;;20.50;95222.00;;;;8221081;28;20476;-68
2023/07/25 12:23:09;;;;;;;5.07;4.07;;;;;20.50;95223.00;;;;8223404;28;20659;-68
2023/07/25 12:27:21;;;;;;;7.47;3.70;;;;;20.40;95217.00;;;;8222135;28;20208;-68
2023/07/25 12:31:25;;;;;;;5.15;3.78;;;;;20.50;95224.00;;;;8214404;28;20250;-69
2023/07/25 12:35:34;;;;;;;5.60;3.65;;;;;20.80;95206.00;;;;8220988;28;20207;-68
2023/07/25 12:39:45;;;;;;;5.53;3.60;;;;;21.30;95197.00;;;;8219490;28;20200;-68
2023/07/25 12:43:48;;;;;;;3.30;2.83;;;;;21.80;95188.00;;;;8220240;28;20233;-68
2023/07/25 12:47:52;;;;;;;3.65;2.70;;;;;22.20;95193.00;;;;8222209;28;20290;-68
2023/07/25 12:52:00;;;;;;;3.53;2.67;;;;;22.70;95176.00;;;;8219535;28;20250;-68
2023/07/25 12:56:05;;;;;;;2.85;2.65;;;;;23.20;95169.00;;;;8218377;28;20303;-67
2023/07/25 13:00:12;;;;;;;2.22;2.13;;;;;23.80;95164.00;;;;8219117;28;20295;-68
2023/07/25 13:04:17;;;;;;;3.60;2.40;;;;;23.90;95170.00;;;;8220936;28;20246;-67
2023/07/25 13:08:21;;;;;;;2.20;2.03;;;;;23.90;95174.00;;;;8217430;28;20207;-67
2023/07/25 13:12:25;;;;;;;2.38;2.20;;;;;24.30;95166.00;;;;8217827;28;20254;-68
2023/07/25 13:16:30;;;;;;;2.50;2.28;;;;;24.80;95166.00;;;;8216574;28;20242;-68
2023/07/25 13:20:38;;;;;;;5.05;2.80;;;;;25.20;95172.00;;;;8236529;28;20219;-68
2023/07/25 13:24:44;;;;;;;2.58;2.38;;;;;25.50;95150.00;;;;8220002;28;20350;-68
2023/07/25 13:28:48;;;;;;;2.17;1.90;;;;;26.10;95168.00;;;;8223513;28;20207;-68
2023/07/25 13:32:52;;;;;;;2.35;2.15;;;;;27.00;95157.00;;;;8221240;28;20289;-68
2023/07/25 13:36:56;;;;;;;4.68;2.08;;;;;27.50;95152.00;;;;8240097;28;20945;-68
2023/07/25 13:41:00;;;;;;;2.00;1.90;;;;;27.30;95153.00;;;;8223228;28;20217;-68
2023/07/25 13:45:05;;;;;;;1.90;1.80;;;;;27.40;95142.00;;;;8219380;28;20238;-68
2023/07/25 13:49:08;;;;;;;2.60;2.10;;;;;27.40;95147.00;;;;8223703;28;20330;-68
2023/07/25 13:53:11;;;;;;;2.00;1.83;;;;;27.10;95136.00;;;;8234305;28;20289;-68
2023/07/25 13:57:14;;;;;;;3.97;2.00;;;;;26.40;95138.00;;;;8235520;28;20230;-68
2023/07/25 14:01:21;;;;;;;1.77;1.67;;;;;26.20;95133.00;;;;8223624;28;20236;-68
2023/07/25 14:05:25;;;;;;;3.90;1.75;;;;;27.00;95137.00;;;;8218804;28;20354;-68
2023/07/25 14:09:31;;;;;;;1.80;1.65;;;;;27.40;95136.00;;;;8214343;28;20243;-68
2023/07/25 14:13:35;;;;;;;1.92;1.70;;;;;26.90;95132.00;;;;8226371;28;20222;-68
2023/07/25 14:17:42;;;;;;;2.03;1.92;;;;;26.50;95142.00;;;;8239227;28;20219;-68
2023/07/25 14:21:45;;;;;;;1.95;1.70;;;;;26.70;95167.00;;;;8236163;28;20227;-69
2023/07/25 14:25:48;;;;;;;4.10;1.85;;;;;26.50;95168.00;;;;8218978;28;20206;-68
2023/07/25 14:29:53;;;;;;;2.83;1.50;;;;;25.60;95237.00;;;;8201103;28;20203;-68
2023/07/25 14:34:03;;;;;;;2.05;1.65;;;;;23.20;95277.00;;;;8216644;28;20572;-71
2023/07/25 14:38:08;;;;;;;2.33;1.30;;;;;20.20;95259.00;;;;8220310;28;20207;-71
2023/07/25 14:42:14;;;;;;;3.85;1.85;;;;;18.70;95256.00;;;;8225381;28;20241;-70
2023/07/25 14:46:18;;;;;;;2.80;1.73;;;;;17.90;95246.00;;;;8230617;28;20261;-71
2023/07/25 14:50:27;;;;;;;5.50;1.70;;;;;17.30;95249.00;;;;8226313;28;20242;-70
2023/07/25 14:54:32;;;;;;;3.70;1.75;;;;;16.90;95251.00;;;;8227544;28;20258;-69
2023/07/25 14:58:38;;;;;;;3.58;1.75;;;;;16.70;95243.00;;;;8221831;28;20303;-74
2023/07/25 17:57:22;;;;;;;1.25;1.25;;;;;21.90;95247.00;;;;8211605;28;20240;-65
2023/07/25 18:01:26;;;;;;;1.30;1.30;;;;;21.60;95259.00;;;;8212008;28;20294;-65
2023/07/25 18:05:30;;;;;;;1.35;1.35;;;;;21.20;95257.00;;;;8201244;28;20625;-64
2023/07/25 18:09:33;;;;;;;1.42;1.38;;;;;20.60;95265.00;;;;8224234;28;20287;-64
2023/07/25 18:13:40;;;;;;;3.17;1.20;;;;;20.20;95279.00;;;;8216729;28;20290;-64
2023/07/25 18:17:43;;;;;;;3.72;1.45;;;;;19.80;95283.00;;;;8221813;28;20203;-64
2023/07/25 18:21:51;;;;;;;1.42;1.35;;;;;19.60;95291.00;;;;8217034;28;20203;-64
2023/07/25 18:25:59;;;;;;;1.30;1.20;;;;;19.40;95296.00;;;;8213295;28;20286;-64
2023/07/25 18:30:09;;;;;;;1.75;1.35;;;;;19.30;95295.00;;;;8213082;28;20295;-64
2023/07/25 18:34:15;;;;;;;1.27;1.20;;;;;19.10;95300.00;;;;8214568;28;20207;-63
2023/07/25 18:38:20;;;;;;;1.35;1.35;;;;;18.80;95303.00;;;;8218059;28;20613;-64
2023/07/25 18:42:26;;;;;;;5.15;1.42;;;;;18.60;95305.00;;;;8215239;28;20233;-64
2023/07/25 18:46:42;;;;;;;2.33;2.13;;;;;18.50;95313.00;;;;8212969;28;20200;-63
2023/07/25 18:50:46;;;;;;;1.42;1.42;;;;;18.30;95330.00;;;;8214632;28;20211;-63
2023/07/25 18:54:50;;;;;;;1.38;1.38;;;;;18.20;95340.00;;;;8192307;28;20314;-63
2023/07/25 18:58:58;;;;;;;1.42;1.30;;;;;18.10;95349.00;;;;8213007;28;20196;-63
2023/07/25 19:03:03;;;;;;;2.05;1.38;;;;;18.00;95356.00;;;;8216931;28;20231;-63
2023/07/25 19:07:07;;;;;;;1.10;1.10;;;;;17.90;95364.00;;;;8225668;28;20207;-63
2023/07/25 19:11:17;;;;;;;3.45;1.40;;;;;17.90;95358.00;;;;8200526;28;20689;-63
2023/07/25 19:15:20;;;;;;;1.45;1.38;;;;;17.90;95366.00;;;;8223019;28;20298;-63
2023/07/25 19:19:25;;;;;;;7.15;1.52;;;;;17.70;95372.00;;;;8235914;28;20207;-64
2023/07/25 19:23:28;;;;;;;1.45;1.35;;;;;17.60;95377.00;;;;8225458;28;20235;-64
2023/07/25 19:27:38;;;;;;;1.17;1.17;;;;;17.50;95395.00;;;;8216289;28;20207;-63
2023/07/25 19:31:41;;;;;;;2.05;1.25;;;;;17.40;95404.00;;;;8214220;28;20250;-63
2023/07/25 19:35:54;;;;;;;1.25;1.25;;;;;17.40;95401.00;;;;8219993;28;20266;-64
2023/07/25 19:39:58;;;;;;;2.15;1.20;;;;;17.40;95415.00;;;;8219291;28;20222;-63
2023/07/25 19:44:07;;;;;;;1.20;1.20;;;;;17.30;95427.00;;;;8216238;28;20231;-64
2023/07/25 19:48:13;;;;;;;2.25;1.10;;;;;17.30;95432.00;;;;8219315;28;20211;-63
2023/07/25 19:52:19;;;;;;;1.15;1.15;;;;;17.20;95440.00;;;;8216038;28;20576;-66
2023/07/25 19:56:25;;;;;;;1.15;1.00;;;;;17.30;95448.00;;;;8215340;28;20239;-63
2023/07/25 20:00:31;;;;;;;1.05;1.05;;;;;17.40;95441.00;;;;8200239;28;20294;-63
2023/07/25 20:04:36;;;;;;;3.65;1.20;;;;;17.40;95451.00;;;;8220648;28;20298;-63
2023/07/25 20:08:40;;;;;;;1.88;1.15;;;;;17.40;95449.00;;;;8227492;28;20212;-63
2023/07/25 20:12:45;;;;;;;1.27;0.98;;;;;17.30;95460.00;;;;8221228;28;20298;-63
2023/07/25 20:16:48;;;;;;;2.67;1.15;;;;;17.10;95468.00;;;;8212948;28;20242;-64
2023/07/25 20:21:02;;;;;;;2.53;1.20;;;;;16.70;95468.00;;;;8222533;28;20522;-70
2023/07/25 20:25:11;;;;;;;4.78;1.40;;;;;16.20;95475.00;;;;8225624;28;20322;-73
2023/07/25 20:29:15;;;;;;;1.80;1.40;;;;;15.90;95480.00;;;;8220305;28;20307;-73
2023/07/25 20:33:20;;;;;;;1.60;1.40;;;;;15.60;95476.00;;;;8217759;28;20287;-77
2023/07/25 20:37:23;;;;;;;1.77;1.52;;;;;15.40;95490.00;;;;8220971;28;20282;-76
2023/07/25 20:41:28;;;;;;;2.97;1.70;;;;;15.30;95494.00;;;;8219889;28;20206;-75
2023/07/25 20:45:32;;;;;;;3.58;1.95;;;;;15.20;95502.00;;;;8218777;28;20227;-74
2023/07/25 20:49:40;;;;;;;1.85;1.75;;;;;15.10;95501.00;;;;8220060;28;20993;-73
2023/07/25 20:53:43;;;;;;;2.47;1.90;;;;;15.10;95510.00;;;;8220097;28;20204;-75
2023/07/25 20:57:47;;;;;;;2.35;1.95;;;;;15.10;95498.00;;;;8200755;28;20219;-74
2023/07/25 21:01:51;;;;;;;4.95;1.90;;;;;15.00;95509.00;;;;8220516;28;20200;-74
2023/07/25 21:05:57;;;;;;;2.25;1.95;;;;;15.10;95509.00;;;;8219138;28;20824;-74
2023/07/25 21:10:00;;;;;;;1.90;1.80;;;;;15.10;95504.00;;;;8221373;28;20214;-75
2023/07/25 21:14:07;;;;;;;2.08;1.92;;;;;15.10;95510.00;;;;8209672;28;20902;-75
2023/07/25 21:18:12;;;;;;;2.35;2.00;;;;;15.20;95520.00;;;;8225186;28;20203;-75
2023/07/25 21:22:16;;;;;;;2.40;1.80;;;;;15.30;95528.00;;;;8222457;28;20207;-75
2023/07/25 21:26:19;;;;;;;4.88;1.88;;;;;15.30;95533.00;;;;8219478;28;20234;-75
2023/07/25 21:30:24;;;;;;;3.78;2.00;;;;;15.30;95539.00;;;;8219590;28;20207;-76
2023/07/25 21:34:29;;;;;;;2.40;2.20;;;;;15.20;95549.00;;;;8244347;28;20250;-74
2023/07/25 21:38:32;;;;;;;5.25;2.13;;;;;15.30;95548.00;;;;8231138;28;20210;-74
2023/07/25 21:42:36;;;;;;;2.13;2.03;;;;;15.30;95546.00;;;;8217150;28;20880;-75
2023/07/25 21:46:42;;;;;;;2.88;2.22;;;;;15.30;95555.00;;;;8230623;28;20239;-74
2023/07/25 21:50:47;;;;;;;3.15;2.85;;;;;15.20;95572.00;;;;8220870;28;20331;-74
2023/07/25 21:54:50;;;;;;;3.33;3.00;;;;;15.20;95578.00;;;;8216196;28;20305;-74
2023/07/25 21:58:54;;;;;;;3.85;3.10;;;;;15.20;95578.00;;;;8218920;28;20249;-73
2023/07/25 22:03:00;;;;;;;4.60;3.42;;;;;15.10;95583.00;;;;8219864;28;20301;-73
2023/07/25 22:07:03;;;;;;;5.70;3.47;;;;;15.10;95584.00;;;;8223528;28;20720;-73
2023/07/25 22:11:09;;;;;;;3.97;3.60;;;;;15.10;95591.00;;;;8237693;28;20325;-72
2023/07/25 22:15:13;;;;;;;4.30;3.70;;;;;15.10;95587.00;;;;8221750;28;20285;-72
2023/07/25 22:19:18;;;;;;;7.68;3.40;;;;;15.20;95591.00;;;;8220811;28;20208;-72
2023/07/25 22:23:21;;;;;;;8.82;3.85;;;;;15.10;95594.00;;;;8213583;28;20235;-72
2023/07/25 22:27:24;;;;;;;7.57;4.20;;;;;15.00;95599.00;;;;8224521;28;20238;-72
2023/07/25 22:31:32;;;;;;;4.10;3.70;;;;;14.90;95597.00;;;;8215653;28;20315;-70
2023/07/25 22:35:37;;;;;;;8.20;4.00;;;;;14.90;95596.00;;;;8216788;28;20211;-71
2023/07/25 22:39:46;;;;;;;5.38;3.85;;;;;14.90;95597.00;;;;8218780;28;20345;-70
2023/07/25 22:43:50;;;;;;;5.65;4.13;;;;;14.90;95594.00;;;;8232690;28;20234;-70
2023/07/25 22:47:54;;;;;;;4.82;3.80;;;;;14.80;95600.00;;;;8226114;28;20235;-69
2023/07/25 22:51:58;;;;;;;7.82;4.45;;;;;14.70;95605.00;;;;8233338;28;20290;-69
2023/07/25 22:56:02;;;;;;;8.77;4.60;;;;;14.60;95594.00;;;;8227965;28;20325;-71
2023/07/25 23:00:07;;;;;;;4.18;3.78;;;;;14.50;95591.00;;;;8229102;28;20207;-71
2023/07/25 23:04:13;;;;;;;9.48;4.22;;;;;14.40;95607.00;;;;8233283;28;20234;-71
2023/07/25 23:08:18;;;;;;;9.70;4.25;;;;;14.40;95603.00;;;;8225197;28;20221;-72
2023/07/25 23:12:24;;;;;;;6.05;4.20;;;;;14.40;95607.00;;;;8220554;28;20240;-72
2023/07/25 23:16:29;;;;;;;9.88;4.10;;;;;14.30;95619.00;;;;8227047;28;20239;-71